Time;durP1;ratioP1;P1;durP2;ratioP2;P2;SDS_P1;SDS_P2;PMS_P1;PMS_P2;Temp;Humidity;BMP_temperature;BMP_pressure;BME280_temperature;BME280_humidity;BME280_pressure;Samples;Min_cycle;Max_cycle;Signal;HPM_P1;HPM_P2
2024/04/02 00:00:46;;;;;;;2.83;1.83;;;;;;;;;;5089874;28;20020;-61
2024/04/02 00:03:13;;;;;;;2.17;1.38;;;;;;;;;;5071797;28;20036;-61
2024/04/02 00:05:39;;;;;;;3.65;1.98;;;;;;;;;;5082339;28;20499;-61
2024/04/02 00:08:06;;;;;;;5.57;1.63;;;;;;;;;;5089828;28;20024;-60
2024/04/02 00:10:32;;;;;;;2.83;1.27;;;;;;;;;;5080608;28;20021;-61
2024/04/02 00:12:59;;;;;;;3.78;1.35;;;;;;;;;;5073827;28;20392;-61
2024/04/02 00:15:25;;;;;;;5.97;1.10;;;;;;;;;;5091693;28;20028;-58
2024/04/02 00:17:51;;;;;;;3.63;1.00;;;;;;;;;;5092067;28;20036;-61
2024/04/02 00:20:17;;;;;;;1.17;0.90;;;;;;;;;;5087225;28;20051;-61
2024/04/02 00:22:44;;;;;;;1.92;1.20;;;;;;;;;;5087619;28;20027;-61
2024/04/02 00:25:10;;;;;;;2.92;1.23;;;;;;;;;;5082606;28;20673;-61
2024/04/02 00:27:36;;;;;;;2.50;1.05;;;;;;;;;;5075331;28;20097;-61
2024/04/02 00:30:02;;;;;;;2.97;1.58;;;;;;;;;;5085816;28;20028;-61
2024/04/02 00:32:28;;;;;;;3.10;1.40;;;;;;;;;;5086232;28;20484;-61
2024/04/02 00:34:54;;;;;;;4.13;1.90;;;;;;;;;;5087356;28;20078;-61
2024/04/02 00:37:21;;;;;;;2.88;1.80;;;;;;;;;;5098239;28;20107;-61
2024/04/02 00:39:47;;;;;;;6.82;2.05;;;;;;;;;;5073364;28;20034;-60
2024/04/02 00:42:13;;;;;;;4.07;2.47;;;;;;;;;;5079489;28;20038;-61
2024/04/02 00:44:39;;;;;;;4.13;2.58;;;;;;;;;;5087012;28;20032;-61
2024/04/02 00:47:06;;;;;;;7.43;2.28;;;;;;;;;;5078712;28;20017;-60
2024/04/02 00:49:32;;;;;;;6.70;2.05;;;;;;;;;;5078519;28;20016;-60
2024/04/02 00:51:59;;;;;;;5.03;2.50;;;;;;;;;;5081255;28;20028;-61
2024/04/02 00:54:25;;;;;;;5.45;2.72;;;;;;;;;;5076582;28;20024;-61
2024/04/02 00:56:51;;;;;;;5.45;2.63;;;;;;;;;;5071139;28;20056;-60
2024/04/02 00:59:18;;;;;;;4.22;2.50;;;;;;;;;;5074331;28;20141;-56
2024/04/02 01:01:44;;;;;;;4.05;2.00;;;;;;;;;;5078206;28;20033;-60
2024/04/02 01:04:10;;;;;;;6.47;2.17;;;;;;;;;;5070744;28;20441;-59
2024/04/02 01:06:36;;;;;;;5.90;2.20;;;;;;;;;;5080684;28;20016;-59
2024/04/02 01:09:04;;;;;;;2.72;2.20;;;;;;;;;;5084158;28;20035;-60
2024/04/02 01:11:30;;;;;;;2.92;2.22;;;;;;;;;;5078629;28;20024;-58
2024/04/02 01:13:56;;;;;;;6.28;2.05;;;;;;;;;;5091695;28;21572;-60
2024/04/02 01:16:22;;;;;;;3.30;1.65;;;;;;;;;;5096102;28;20070;-59
2024/04/02 01:18:48;;;;;;;3.20;1.70;;;;;;;;;;5101232;28;20032;-59
2024/04/02 01:21:14;;;;;;;2.45;1.90;;;;;;;;;;5092983;28;20039;-59
2024/04/02 01:23:40;;;;;;;2.78;1.92;;;;;;;;;;5085027;28;20044;-59
2024/04/02 01:26:06;;;;;;;5.13;1.90;;;;;;;;;;5086809;28;20470;-58
2024/04/02 01:28:32;;;;;;;3.30;2.00;;;;;;;;;;5082136;28;20038;-59
2024/04/02 01:30:58;;;;;;;4.82;1.95;;;;;;;;;;5087660;28;20031;-59
2024/04/02 01:33:24;;;;;;;1.73;1.60;;;;;;;;;;5094372;28;20081;-57
2024/04/02 01:35:50;;;;;;;2.28;1.80;;;;;;;;;;5095116;28;20708;-59
2024/04/02 01:38:16;;;;;;;3.08;1.95;;;;;;;;;;5082915;28;20020;-59
2024/04/02 01:40:42;;;;;;;2.67;1.88;;;;;;;;;;5078780;28;20025;-59
2024/04/02 01:43:08;;;;;;;3.85;1.67;;;;;;;;;;5086229;28;20099;-59
2024/04/02 01:45:34;;;;;;;4.75;1.85;;;;;;;;;;5088013;28;20035;-59
2024/04/02 01:48:02;;;;;;;5.05;1.55;;;;;;;;;;5087799;28;20032;-59
2024/04/02 01:50:28;;;;;;;4.35;1.58;;;;;;;;;;5086854;28;20400;-59
2024/04/02 01:52:54;;;;;;;3.40;1.70;;;;;;;;;;5074622;28;20025;-59
2024/04/02 01:55:20;;;;;;;3.42;1.60;;;;;;;;;;5083813;28;20492;-57
2024/04/02 01:57:46;;;;;;;2.47;1.55;;;;;;;;;;5085631;28;20388;-59
2024/04/02 02:00:12;;;;;;;2.97;1.42;;;;;;;;;;5090892;28;20081;-59
2024/04/02 02:02:38;;;;;;;1.90;1.45;;;;;;;;;;5080059;28;20513;-58
2024/04/02 02:05:04;;;;;;;2.92;1.23;;;;;;;;;;5078944;28;20040;-59
2024/04/02 02:07:30;;;;;;;4.50;1.38;;;;;;;;;;5094263;28;20028;-57
2024/04/02 02:09:56;;;;;;;2.63;1.55;;;;;;;;;;5079050;28;20035;-59
2024/04/02 02:12:22;;;;;;;2.70;1.48;;;;;;;;;;5084882;28;20480;-59
2024/04/02 02:14:48;;;;;;;2.28;1.17;;;;;;;;;;5081785;28;20019;-58
2024/04/02 02:17:14;;;;;;;2.10;1.35;;;;;;;;;;5088833;28;20020;-59
2024/04/02 02:19:40;;;;;;;4.20;1.40;;;;;;;;;;5083883;28;20112;-58
2024/04/02 02:22:06;;;;;;;2.33;1.20;;;;;;;;;;5078384;28;20024;-58
2024/04/02 02:24:32;;;;;;;1.42;1.20;;;;;;;;;;5089623;28;20102;-60
2024/04/02 02:26:59;;;;;;;1.15;1.05;;;;;;;;;;5082382;28;20102;-59
2024/04/02 02:29:26;;;;;;;1.63;1.15;;;;;;;;;;5081180;28;20024;-59
2024/04/02 02:31:55;;;;;;;1.77;1.20;;;;;;;;;;5078124;28;20031;-59
2024/04/02 02:34:21;;;;;;;1.83;1.20;;;;;;;;;;5073608;28;20106;-59
2024/04/02 02:36:47;;;;;;;2.30;1.30;;;;;;;;;;5101821;28;20031;-57
2024/04/02 02:39:13;;;;;;;4.22;1.20;;;;;;;;;;5092676;28;20036;-59
2024/04/02 02:41:40;;;;;;;1.80;1.15;;;;;;;;;;5079712;28;20024;-59
2024/04/02 02:44:06;;;;;;;1.55;1.27;;;;;;;;;;5079877;28;20032;-58
2024/04/02 02:46:33;;;;;;;1.48;1.10;;;;;;;;;;5078828;28;20073;-59
2024/04/02 02:49:00;;;;;;;2.78;1.10;;;;;;;;;;5077376;28;20111;-59
2024/04/02 02:51:26;;;;;;;2.25;1.13;;;;;;;;;;5073288;28;20131;-60
2024/04/02 02:53:52;;;;;;;3.53;1.20;;;;;;;;;;5089326;28;20422;-59
2024/04/02 02:56:19;;;;;;;1.65;1.00;;;;;;;;;;5088711;28;20020;-58
2024/04/02 02:58:45;;;;;;;3.15;1.30;;;;;;;;;;5073624;28;20128;-58
2024/04/02 03:01:11;;;;;;;1.10;1.00;;;;;;;;;;5076454;28;20502;-58
2024/04/02 03:03:37;;;;;;;5.38;1.10;;;;;;;;;;5078033;28;20025;-60
2024/04/02 03:06:03;;;;;;;2.78;1.17;;;;;;;;;;5080993;28;20111;-59
2024/04/02 03:08:29;;;;;;;2.42;1.17;;;;;;;;;;5091299;28;20027;-59
2024/04/02 03:10:56;;;;;;;2.03;1.10;;;;;;;;;;5084129;28;20116;-58
2024/04/02 03:13:24;;;;;;;2.85;1.40;;;;;;;;;;5072624;28;20032;-59
2024/04/02 03:15:50;;;;;;;2.40;1.27;;;;;;;;;;5072236;28;20037;-58
2024/04/02 03:18:16;;;;;;;10.13;1.42;;;;;;;;;;5079194;28;20510;-55
2024/04/02 03:20:42;;;;;;;3.03;1.30;;;;;;;;;;5073629;28;20044;-54
2024/04/02 03:23:10;;;;;;;3.65;1.20;;;;;;;;;;5090423;28;20020;-54
2024/04/02 03:25:36;;;;;;;4.80;1.25;;;;;;;;;;5084321;28;20032;-55
2024/04/02 03:28:02;;;;;;;3.45;1.10;;;;;;;;;;5072357;28;20480;-54
2024/04/02 03:30:28;;;;;;;1.45;1.35;;;;;;;;;;5084984;28;20077;-55
2024/04/02 03:32:54;;;;;;;3.97;1.30;;;;;;;;;;5080045;28;20469;-56
2024/04/02 03:35:20;;;;;;;3.08;1.10;;;;;;;;;;5098299;27;20424;-56
2024/04/02 03:37:46;;;;;;;3.70;1.42;;;;;;;;;;5080074;28;20423;-55
2024/04/02 03:40:12;;;;;;;2.83;1.30;;;;;;;;;;5072274;28;20112;-55
2024/04/02 03:42:38;;;;;;;1.73;1.17;;;;;;;;;;5077284;28;20086;-55
2024/04/02 03:45:04;;;;;;;1.70;1.10;;;;;;;;;;5092694;28;20114;-55
2024/04/02 03:47:30;;;;;;;4.90;1.40;;;;;;;;;;5078818;28;20389;-56
2024/04/02 03:49:56;;;;;;;2.50;1.33;;;;;;;;;;5092091;28;20028;-55
2024/04/02 03:52:22;;;;;;;3.72;1.50;;;;;;;;;;5092265;28;20032;-56
2024/04/02 03:54:48;;;;;;;3.40;1.42;;;;;;;;;;5092371;28;20521;-55
2024/04/02 03:57:14;;;;;;;2.88;1.80;;;;;;;;;;5078715;28;20449;-56
2024/04/02 03:59:40;;;;;;;3.45;1.80;;;;;;;;;;5075510;28;20107;-56
2024/04/02 04:02:06;;;;;;;3.10;1.88;;;;;;;;;;5090602;28;20107;-58
2024/04/02 04:04:32;;;;;;;2.80;1.60;;;;;;;;;;5082995;28;20488;-57
2024/04/02 04:06:58;;;;;;;3.75;2.10;;;;;;;;;;5086157;28;20391;-56
2024/04/02 04:09:24;;;;;;;1.60;1.27;;;;;;;;;;5092059;28;20031;-55
2024/04/02 04:11:50;;;;;;;4.68;1.90;;;;;;;;;;5085234;28;20060;-55
2024/04/02 04:14:16;;;;;;;2.30;1.80;;;;;;;;;;5091032;28;20066;-56
2024/04/02 04:16:42;;;;;;;3.00;1.90;;;;;;;;;;5088995;28;20032;-56
2024/04/02 04:19:08;;;;;;;2.22;1.60;;;;;;;;;;5080574;28;20119;-55
2024/04/02 04:21:35;;;;;;;3.15;1.95;;;;;;;;;;5090175;28;20073;-55
2024/04/02 04:24:01;;;;;;;6.05;2.28;;;;;;;;;;5089247;28;20066;-55
2024/04/02 04:26:27;;;;;;;3.15;2.20;;;;;;;;;;5083682;28;20028;-54
2024/04/02 04:28:53;;;;;;;8.05;2.75;;;;;;;;;;5091597;28;20066;-57
2024/04/02 04:31:19;;;;;;;3.97;2.65;;;;;;;;;;5084779;28;20025;-59
2024/04/02 04:33:45;;;;;;;4.22;2.40;;;;;;;;;;5084314;28;20016;-58
2024/04/02 04:36:12;;;;;;;3.17;2.40;;;;;;;;;;5087567;28;20574;-56
2024/04/02 04:38:38;;;;;;;4.85;2.75;;;;;;;;;;5089645;28;20483;-58
2024/04/02 04:41:04;;;;;;;5.63;2.67;;;;;;;;;;5078337;28;20110;-59
2024/04/02 04:43:30;;;;;;;4.10;2.30;;;;;;;;;;5078085;28;20073;-59
2024/04/02 04:46:00;;;;;;;4.25;3.00;;;;;;;;;;5089596;28;20127;-59
2024/04/02 04:48:26;;;;;;;3.85;2.83;;;;;;;;;;5094758;28;20031;-58
2024/04/02 04:51:02;;;;;;;6.20;2.60;;;;;;;;;;5089122;28;20020;-59
2024/04/02 04:53:29;;;;;;;3.60;2.67;;;;;;;;;;5085824;28;20107;-58
2024/04/02 04:55:59;;;;;;;3.15;2.65;;;;;;;;;;5079664;28;20035;-59
2024/04/02 04:58:25;;;;;;;4.75;2.83;;;;;;;;;;5089827;28;20062;-59
2024/04/02 05:00:50;;;;;;;5.65;2.47;;;;;;;;;;5091943;28;20111;-59
2024/04/02 05:03:16;;;;;;;6.50;2.53;;;;;;;;;;5080715;28;20053;-58
2024/04/02 05:05:42;;;;;;;4.55;3.13;;;;;;;;;;5087002;28;20491;-59
2024/04/02 05:08:14;;;;;;;6.22;2.80;;;;;;;;;;5093127;28;20024;-58
2024/04/02 05:10:40;;;;;;;6.05;3.00;;;;;;;;;;5087111;28;20032;-59
2024/04/02 05:13:06;;;;;;;5.65;3.00;;;;;;;;;;5093695;28;20054;-59
2024/04/02 05:15:32;;;;;;;3.80;2.60;;;;;;;;;;5085151;28;20500;-59
2024/04/02 05:17:58;;;;;;;5.47;3.08;;;;;;;;;;5091442;28;20369;-57
2024/04/02 05:20:24;;;;;;;5.53;3.20;;;;;;;;;;5090766;28;20034;-59
2024/04/02 05:22:51;;;;;;;4.82;3.17;;;;;;;;;;5084435;28;20040;-58
2024/04/02 05:25:17;;;;;;;4.25;2.92;;;;;;;;;;5085309;28;20090;-59
2024/04/02 05:27:43;;;;;;;7.57;3.80;;;;;;;;;;5083899;28;20031;-59
2024/04/02 05:30:09;;;;;;;6.53;3.60;;;;;;;;;;5086389;28;20388;-59
2024/04/02 05:32:35;;;;;;;6.35;3.15;;;;;;;;;;5086933;28;20391;-59
2024/04/02 05:35:02;;;;;;;5.32;3.53;;;;;;;;;;5092308;28;20035;-60
2024/04/02 05:37:28;;;;;;;8.77;3.35;;;;;;;;;;5090119;28;20052;-59
2024/04/02 05:39:54;;;;;;;7.65;3.15;;;;;;;;;;5091125;28;20535;-59
2024/04/02 05:42:21;;;;;;;5.53;3.38;;;;;;;;;;5083706;28;20043;-57
2024/04/02 05:44:47;;;;;;;5.70;3.20;;;;;;;;;;5093625;28;20020;-59
2024/04/02 05:47:13;;;;;;;4.82;2.85;;;;;;;;;;5090260;28;20495;-59
2024/04/02 05:49:39;;;;;;;4.72;3.25;;;;;;;;;;5089298;28;20361;-59
2024/04/02 05:52:05;;;;;;;6.35;3.03;;;;;;;;;;5091804;28;20070;-59
2024/04/02 05:54:31;;;;;;;7.22;3.20;;;;;;;;;;5092253;28;20032;-58
2024/04/02 05:56:58;;;;;;;4.18;3.70;;;;;;;;;;5082604;28;20495;-59
2024/04/02 05:59:24;;;;;;;5.28;3.60;;;;;;;;;;5086098;28;20375;-59
2024/04/02 06:01:49;;;;;;;7.68;3.33;;;;;;;;;;5089681;28;20028;-56
2024/04/02 06:04:15;;;;;;;6.20;3.97;;;;;;;;;;5083633;28;20447;-59
2024/04/02 06:06:41;;;;;;;5.80;3.95;;;;;;;;;;5087188;28;20064;-59
2024/04/02 06:09:07;;;;;;;8.98;3.38;;;;;;;;;;5087891;28;20032;-59
2024/04/02 06:11:33;;;;;;;6.90;3.65;;;;;;;;;;5087817;28;20024;-60
2024/04/02 06:13:59;;;;;;;4.75;3.13;;;;;;;;;;5088023;28;20035;-60
2024/04/02 06:16:25;;;;;;;5.15;3.42;;;;;;;;;;5084266;28;20056;-59
2024/04/02 06:18:51;;;;;;;4.50;3.13;;;;;;;;;;5085541;28;20031;-58
2024/04/02 06:21:17;;;;;;;6.78;3.25;;;;;;;;;;5086057;28;20391;-59
2024/04/02 06:23:46;;;;;;;4.72;3.50;;;;;;;;;;5085964;28;20069;-59
2024/04/02 06:26:14;;;;;;;4.68;3.20;;;;;;;;;;5086866;28;20039;-59
2024/04/02 06:28:40;;;;;;;4.45;2.90;;;;;;;;;;5086257;28;20020;-59
2024/04/02 06:31:06;;;;;;;5.63;3.13;;;;;;;;;;5090810;28;20056;-59
2024/04/02 06:33:32;;;;;;;7.40;3.70;;;;;;;;;;5089352;28;20031;-58
2024/04/02 06:35:58;;;;;;;4.55;3.10;;;;;;;;;;5092167;28;20140;-57
2024/04/02 06:38:24;;;;;;;7.63;3.70;;;;;;;;;;5082087;28;20483;-60
2024/04/02 06:40:50;;;;;;;5.25;3.35;;;;;;;;;;5081663;28;20532;-60
2024/04/02 06:43:16;;;;;;;5.43;3.05;;;;;;;;;;5090249;28;20035;-59
2024/04/02 06:45:42;;;;;;;3.70;3.00;;;;;;;;;;5084293;28;20031;-59
2024/04/02 06:48:08;;;;;;;6.10;2.58;;;;;;;;;;5085538;28;20076;-55
2024/04/02 06:50:34;;;;;;;5.65;2.63;;;;;;;;;;5083537;28;20032;-55
2024/04/02 06:53:00;;;;;;;5.10;3.10;;;;;;;;;;5083065;28;20024;-55
2024/04/02 06:55:26;;;;;;;2.90;2.38;;;;;;;;;;5089386;28;20028;-54
2024/04/02 06:57:52;;;;;;;6.40;2.47;;;;;;;;;;5085174;28;20039;-55
2024/04/02 07:00:19;;;;;;;6.72;2.75;;;;;;;;;;5080830;28;20033;-55
2024/04/02 07:02:45;;;;;;;4.60;2.70;;;;;;;;;;5082989;28;20035;-56
2024/04/02 07:05:11;;;;;;;3.25;2.20;;;;;;;;;;5079208;28;20024;-56
2024/04/02 07:07:37;;;;;;;7.88;2.55;;;;;;;;;;5083331;28;20031;-57
2024/04/02 07:10:04;;;;;;;7.40;2.65;;;;;;;;;;5088743;28;20499;-56
2024/04/02 07:12:30;;;;;;;4.05;2.15;;;;;;;;;;5089350;28;20016;-57
2024/04/02 07:14:55;;;;;;;4.10;1.95;;;;;;;;;;5088026;28;20072;-55
2024/04/02 07:17:21;;;;;;;4.20;2.00;;;;;;;;;;5085611;28;20065;-55
2024/04/02 07:19:47;;;;;;;5.05;2.00;;;;;;;;;;5086254;28;20032;-55
2024/04/02 07:22:13;;;;;;;3.10;2.10;;;;;;;;;;5091318;28;20422;-56
2024/04/02 07:24:39;;;;;;;5.68;2.08;;;;;;;;;;5084216;28;20407;-56
2024/04/02 07:27:06;;;;;;;3.00;1.92;;;;;;;;;;5087304;28;20419;-55
2024/04/02 07:29:32;;;;;;;3.47;2.13;;;;;;;;;;5089990;28;20035;-56
2024/04/02 07:31:58;;;;;;;3.55;2.05;;;;;;;;;;5089835;28;20028;-56
2024/04/02 07:34:24;;;;;;;1.98;1.70;;;;;;;;;;5089902;28;20027;-56
2024/04/02 07:36:50;;;;;;;5.60;1.52;;;;;;;;;;5091983;28;20031;-55
2024/04/02 07:39:16;;;;;;;2.40;1.38;;;;;;;;;;5083762;28;20085;-56
2024/04/02 07:41:41;;;;;;;2.65;1.80;;;;;;;;;;5092698;28;20032;-56
2024/04/02 07:44:07;;;;;;;6.00;1.80;;;;;;;;;;5089688;28;20462;-56
2024/04/02 07:46:34;;;;;;;3.85;1.92;;;;;;;;;;5089964;28;20514;-56
2024/04/02 07:49:00;;;;;;;3.88;1.67;;;;;;;;;;5090395;28;20020;-56
2024/04/02 07:51:26;;;;;;;8.23;2.10;;;;;;;;;;5083756;28;20032;-56
2024/04/02 07:53:53;;;;;;;2.88;1.90;;;;;;;;;;5090660;28;20016;-56
2024/04/02 07:56:19;;;;;;;3.67;1.75;;;;;;;;;;5090715;28;20024;-55
2024/04/02 07:58:45;;;;;;;3.25;1.50;;;;;;;;;;5081727;28;20027;-56
2024/04/02 08:01:11;;;;;;;3.60;1.80;;;;;;;;;;5090139;28;20507;-58
2024/04/02 08:03:37;;;;;;;6.35;1.65;;;;;;;;;;5084958;28;20369;-56
2024/04/02 08:06:03;;;;;;;6.25;1.67;;;;;;;;;;5085205;28;20395;-56
2024/04/02 08:08:29;;;;;;;4.57;1.60;;;;;;;;;;5081808;28;20175;-56
2024/04/02 08:10:55;;;;;;;2.55;1.58;;;;;;;;;;5089133;28;20036;-56
2024/04/02 08:13:21;;;;;;;5.22;1.73;;;;;;;;;;5082608;28;20384;-58
2024/04/02 08:15:47;;;;;;;7.15;1.55;;;;;;;;;;5086076;28;20028;-57
2024/04/02 08:18:13;;;;;;;2.65;1.23;;;;;;;;;;5083942;28;20047;-58
2024/04/02 08:20:39;;;;;;;7.25;1.65;;;;;;;;;;5079997;28;20055;-56
2024/04/02 08:23:07;;;;;;;2.05;1.33;;;;;;;;;;5084716;28;20024;-56
2024/04/02 08:25:33;;;;;;;4.18;1.40;;;;;;;;;;5086964;28;20373;-59
2024/04/02 08:27:58;;;;;;;2.33;1.10;;;;;;;;;;5074836;28;20027;-57
2024/04/02 08:30:24;;;;;;;2.33;1.27;;;;;;;;;;5074028;28;20028;-56
2024/04/02 08:32:50;;;;;;;3.63;1.35;;;;;;;;;;5077294;28;20020;-57
2024/04/02 08:35:16;;;;;;;2.65;1.17;;;;;;;;;;5085489;28;20032;-57
2024/04/02 08:37:42;;;;;;;2.90;1.10;;;;;;;;;;5080218;28;20028;-56
2024/04/02 08:40:09;;;;;;;6.22;1.00;;;;;;;;;;5087723;28;20028;-57
2024/04/02 08:42:37;;;;;;;3.67;0.90;;;;;;;;;;5086761;28;20388;-56
2024/04/02 08:45:05;;;;;;;2.72;0.80;;;;;;;;;;5087402;28;20055;-58
2024/04/02 08:47:31;;;;;;;3.80;1.00;;;;;;;;;;5088110;28;20055;-57
2024/04/02 08:49:58;;;;;;;5.13;1.08;;;;;;;;;;5083792;28;20081;-57
2024/04/02 08:52:24;;;;;;;4.80;1.63;;;;;;;;;;5078027;28;20399;-56
2024/04/02 08:54:50;;;;;;;1.58;0.50;;;;;;;;;;5087346;28;20095;-56
2024/04/02 08:57:16;;;;;;;1.42;0.90;;;;;;;;;;5078891;28;20028;-57
2024/04/02 08:59:42;;;;;;;2.60;0.90;;;;;;;;;;5079502;28;20020;-56
2024/04/02 09:02:10;;;;;;;2.35;1.00;;;;;;;;;;5082178;28;20103;-56
2024/04/02 09:04:36;;;;;;;1.05;0.68;;;;;;;;;;5088035;28;20032;-56
2024/04/02 09:07:02;;;;;;;2.65;0.80;;;;;;;;;;5087686;28;20078;-56
2024/04/02 09:09:28;;;;;;;1.40;0.70;;;;;;;;;;5081047;28;20024;-58
2024/04/02 09:11:54;;;;;;;2.67;0.80;;;;;;;;;;5087507;28;20032;-56
2024/04/02 09:14:20;;;;;;;1.85;1.10;;;;;;;;;;5090328;28;20049;-56
2024/04/02 09:16:49;;;;;;;3.03;1.20;;;;;;;;;;5090854;28;20031;-56
2024/04/02 09:19:15;;;;;;;2.72;0.73;;;;;;;;;;5082130;28;20059;-56
2024/04/02 09:21:41;;;;;;;2.80;0.75;;;;;;;;;;5087838;28;20052;-56
2024/04/02 09:24:08;;;;;;;2.28;1.02;;;;;;;;;;5090092;28;20071;-56
2024/04/02 09:26:34;;;;;;;4.78;1.00;;;;;;;;;;5089479;28;20043;-56
2024/04/02 09:29:00;;;;;;;0.90;0.50;;;;;;;;;;5090833;28;20118;-55
2024/04/02 09:31:30;;;;;;;5.25;0.60;;;;;;;;;;5090616;28;20064;-56
2024/04/02 09:33:58;;;;;;;3.03;0.70;;;;;;;;;;5093570;28;20028;-57
2024/04/02 09:36:43;;;;;;;1.42;0.50;;;;;;;;;;5092750;28;20400;-56
2024/04/02 09:39:10;;;;;;;4.78;0.70;;;;;;;;;;5086661;28;20142;-57
2024/04/02 09:41:38;;;;;;;2.28;0.65;;;;;;;;;;5088937;28;20048;-56
2024/04/02 09:44:05;;;;;;;2.67;0.47;;;;;;;;;;5093637;28;20111;-56
2024/04/02 09:46:31;;;;;;;5.32;1.10;;;;;;;;;;5091962;28;20042;-55
2024/04/02 09:49:00;;;;;;;2.78;0.60;;;;;;;;;;5094115;28;20483;-56
2024/04/02 09:51:27;;;;;;;2.33;0.90;;;;;;;;;;5092139;28;20058;-56
2024/04/02 09:53:55;;;;;;;5.90;0.90;;;;;;;;;;5092621;28;20032;-56
2024/04/02 09:56:21;;;;;;;8.63;1.02;;;;;;;;;;5090686;28;20027;-56
2024/04/02 09:58:47;;;;;;;1.90;0.40;;;;;;;;;;5092501;28;20081;-56
2024/04/02 10:01:14;;;;;;;2.75;0.60;;;;;;;;;;5090980;28;20028;-56
2024/04/02 10:03:42;;;;;;;1.95;0.70;;;;;;;;;;5092578;28;20089;-56
2024/04/02 10:06:09;;;;;;;3.65;0.60;;;;;;;;;;5090421;28;20032;-56
2024/04/02 10:08:36;;;;;;;3.33;0.82;;;;;;;;;;5086598;28;20017;-56
2024/04/02 10:11:03;;;;;;;2.67;1.00;;;;;;;;;;5084757;28;20028;-56
2024/04/02 10:13:39;;;;;;;4.72;0.60;;;;;;;;;;5085297;28;20033;-57
2024/04/02 10:16:11;;;;;;;5.50;1.10;;;;;;;;;;5093726;28;20031;-56
2024/04/02 10:18:44;;;;;;;3.70;0.90;;;;;;;;;;5093219;28;20097;-59
2024/04/02 10:21:10;;;;;;;1.45;0.57;;;;;;;;;;5093808;28;20057;-59
2024/04/02 10:23:36;;;;;;;10.00;0.82;;;;;;;;;;5077552;28;20051;-60
2024/04/02 10:26:02;;;;;;;5.07;0.70;;;;;;;;;;5087832;28;20024;-59
2024/04/02 10:28:31;;;;;;;2.38;0.80;;;;;;;;;;5092158;28;20055;-59
2024/04/02 10:30:57;;;;;;;3.00;0.60;;;;;;;;;;5084760;28;20032;-59
2024/04/02 10:33:27;;;;;;;3.40;0.47;;;;;;;;;;5092389;28;20032;-59
2024/04/02 10:35:54;;;;;;;1.85;0.57;;;;;;;;;;5095968;28;20020;-59
2024/04/02 10:38:20;;;;;;;1.52;0.70;;;;;;;;;;5089519;28;20507;-60
2024/04/02 10:40:48;;;;;;;2.75;0.55;;;;;;;;;;5089104;28;20024;-59
2024/04/02 10:43:14;;;;;;;2.88;0.75;;;;;;;;;;5088779;28;20398;-59
2024/04/02 10:45:40;;;;;;;4.68;0.60;;;;;;;;;;5092494;28;20043;-59
2024/04/02 10:48:06;;;;;;;3.92;0.80;;;;;;;;;;5082678;28;20042;-59
2024/04/02 10:50:32;;;;;;;1.20;0.45;;;;;;;;;;5089486;28;20072;-59
2024/04/02 10:52:58;;;;;;;1.83;0.52;;;;;;;;;;5085247;28;20036;-59
2024/04/02 10:55:24;;;;;;;3.67;0.90;;;;;;;;;;5087276;28;20024;-59
2024/04/02 10:57:50;;;;;;;4.88;0.80;;;;;;;;;;5085413;28;20037;-59
2024/04/02 11:00:16;;;;;;;1.40;0.55;;;;;;;;;;5088936;28;20027;-60
2024/04/02 11:02:43;;;;;;;2.40;0.70;;;;;;;;;;5088127;28;20028;-58
2024/04/02 11:05:13;;;;;;;2.40;0.60;;;;;;;;;;5088534;28;20032;-60
2024/04/02 11:07:41;;;;;;;4.47;1.02;;;;;;;;;;5089097;28;20020;-60
2024/04/02 11:10:07;;;;;;;2.88;0.57;;;;;;;;;;5088255;28;20036;-60
2024/04/02 11:12:34;;;;;;;2.38;0.60;;;;;;;;;;5090058;28;20392;-57
2024/04/02 11:15:00;;;;;;;3.10;0.60;;;;;;;;;;5087263;28;20500;-58
2024/04/02 11:17:26;;;;;;;5.13;1.00;;;;;;;;;;5091286;28;20424;-60
2024/04/02 11:19:52;;;;;;;3.50;0.50;;;;;;;;;;5090122;28;20139;-59
2024/04/02 11:25:11;;;;;;;3.97;0.80;;;;;;;;;;5088672;28;20047;-59
2024/04/02 11:27:37;;;;;;;2.28;0.70;;;;;;;;;;5086193;28;20060;-60
2024/04/02 11:30:03;;;;;;;2.10;0.90;;;;;;;;;;5089672;28;20108;-60
2024/04/02 11:32:29;;;;;;;4.22;0.93;;;;;;;;;;5077495;28;20052;-61
2024/04/02 11:34:59;;;;;;;2.70;0.70;;;;;;;;;;5085408;28;20024;-61
2024/04/02 11:37:26;;;;;;;3.33;0.93;;;;;;;;;;5088292;28;20241;-60
2024/04/02 11:39:52;;;;;;;2.50;0.85;;;;;;;;;;5088873;28;20032;-61
2024/04/02 11:42:19;;;;;;;3.17;0.70;;;;;;;;;;5089766;28;20027;-61
2024/04/02 11:44:45;;;;;;;2.75;0.70;;;;;;;;;;5088837;28;20151;-61
2024/04/02 11:47:13;;;;;;;4.72;0.77;;;;;;;;;;5089468;28;20031;-61
2024/04/02 11:49:39;;;;;;;2.17;0.88;;;;;;;;;;5086809;28;20020;-60
2024/04/02 11:52:05;;;;;;;2.80;0.82;;;;;;;;;;5085618;28;20052;-59
2024/04/02 11:54:32;;;;;;;2.92;0.80;;;;;;;;;;5092817;28;20511;-61
2024/04/02 12:02:27;;;;;;;4.15;0.75;;;;;;;;;;5079250;28;20734;-61
2024/04/02 12:04:53;;;;;;;1.27;0.60;;;;;;;;;;5086303;28;20037;-60
2024/04/02 12:07:19;;;;;;;8.73;1.17;;;;;;;;;;5091255;28;20028;-61
2024/04/02 12:09:49;;;;;;;5.03;1.88;;;;;;;;;;5082384;28;20077;-61
2024/04/02 12:12:15;;;;;;;3.95;0.70;;;;;;;;;;5087816;28;20103;-61
2024/04/02 12:14:41;;;;;;;4.63;1.08;;;;;;;;;;5083418;28;20036;-60
2024/04/02 12:17:07;;;;;;;4.57;0.70;;;;;;;;;;5083637;28;20103;-60
2024/04/02 12:19:33;;;;;;;3.25;0.80;;;;;;;;;;5090774;28;20498;-61
2024/04/02 12:21:59;;;;;;;2.85;0.70;;;;;;;;;;5090170;28;20108;-61
2024/04/02 12:24:25;;;;;;;6.00;0.65;;;;;;;;;;5088102;28;20090;-61
2024/04/02 12:26:51;;;;;;;1.85;0.50;;;;;;;;;;5088773;28;20024;-60
2024/04/02 12:29:17;;;;;;;4.10;0.82;;;;;;;;;;5086810;28;20035;-60
2024/04/02 12:31:43;;;;;;;4.35;0.70;;;;;;;;;;5079967;28;20549;-60
2024/04/02 12:34:09;;;;;;;5.72;1.10;;;;;;;;;;5087320;28;20038;-61
2024/04/02 12:36:35;;;;;;;1.70;0.70;;;;;;;;;;5092072;28;20032;-61
2024/04/02 12:39:02;;;;;;;3.80;0.52;;;;;;;;;;5090886;28;20778;-60
2024/04/02 12:41:29;;;;;;;5.10;0.60;;;;;;;;;;5090543;28;20422;-59
2024/04/02 12:43:56;;;;;;;6.13;0.90;;;;;;;;;;5080774;28;20433;-59
2024/04/02 12:46:22;;;;;;;3.42;0.60;;;;;;;;;;5090382;28;20032;-60
2024/04/02 12:48:47;;;;;;;3.22;0.65;;;;;;;;;;5087212;28;20028;-60
2024/04/02 12:51:13;;;;;;;2.13;0.80;;;;;;;;;;5089686;28;20055;-59
2024/04/02 12:53:39;;;;;;;3.00;1.02;;;;;;;;;;5089998;28;20391;-59
2024/04/02 12:56:09;;;;;;;1.95;0.80;;;;;;;;;;5091282;28;20379;-60
2024/04/02 12:58:35;;;;;;;6.88;0.82;;;;;;;;;;5089445;28;20567;-60
2024/04/02 13:01:03;;;;;;;2.20;0.50;;;;;;;;;;5077430;28;21002;-60
2024/04/02 13:03:29;;;;;;;1.15;0.52;;;;;;;;;;5085312;28;20515;-60
2024/04/02 13:05:55;;;;;;;3.90;0.90;;;;;;;;;;5085918;28;20039;-60
2024/04/02 13:08:21;;;;;;;2.33;0.50;;;;;;;;;;5093790;28;20256;-59
2024/04/02 13:10:48;;;;;;;1.50;0.60;;;;;;;;;;5093267;28;20024;-60
2024/04/02 13:13:15;;;;;;;2.58;0.77;;;;;;;;;;5090031;28;20484;-60
2024/04/02 13:15:41;;;;;;;7.07;0.98;;;;;;;;;;5088275;28;20036;-61
2024/04/02 13:18:07;;;;;;;1.85;0.63;;;;;;;;;;5088969;28;20111;-61
2024/04/02 13:20:33;;;;;;;4.25;0.60;;;;;;;;;;5084177;28;20442;-60
2024/04/02 13:22:59;;;;;;;2.22;0.50;;;;;;;;;;5082511;28;20036;-59
2024/04/02 13:25:26;;;;;;;1.38;0.75;;;;;;;;;;5093535;28;20472;-60
2024/04/02 13:27:52;;;;;;;6.95;1.13;;;;;;;;;;5093267;28;20039;-59
2024/04/02 13:30:18;;;;;;;3.72;1.23;;;;;;;;;;5092699;28;20050;-60
2024/04/02 13:32:44;;;;;;;6.53;0.90;;;;;;;;;;5090775;28;20031;-61
2024/04/02 13:35:11;;;;;;;1.20;0.63;;;;;;;;;;5095093;28;20416;-60
2024/04/02 13:37:38;;;;;;;1.65;0.60;;;;;;;;;;5092938;28;20028;-59
2024/04/02 13:40:04;;;;;;;1.20;0.60;;;;;;;;;;5090555;28;20336;-60
2024/04/02 13:42:30;;;;;;;2.80;0.95;;;;;;;;;;5088959;28;20499;-59
2024/04/02 13:44:56;;;;;;;2.47;0.80;;;;;;;;;;5091818;28;20039;-60
2024/04/02 13:47:22;;;;;;;2.22;0.63;;;;;;;;;;5089822;28;20032;-60
2024/04/02 13:49:48;;;;;;;2.65;0.85;;;;;;;;;;5091364;28;20020;-58
2024/04/02 13:52:14;;;;;;;2.95;0.68;;;;;;;;;;5091359;28;20069;-58
2024/04/02 13:54:40;;;;;;;1.58;0.32;;;;;;;;;;5090567;28;20028;-57
2024/04/02 13:57:06;;;;;;;0.90;0.40;;;;;;;;;;5090849;28;20028;-59
2024/04/02 13:59:32;;;;;;;1.25;0.35;;;;;;;;;;5090073;28;20032;-59
2024/04/02 14:01:58;;;;;;;1.25;0.50;;;;;;;;;;5091865;28;20032;-59
2024/04/02 14:04:24;;;;;;;1.33;0.70;;;;;;;;;;5088033;28;20028;-59
2024/04/02 14:06:50;;;;;;;1.67;0.60;;;;;;;;;;5093595;28;20016;-58
2024/04/02 14:09:16;;;;;;;6.10;0.70;;;;;;;;;;5093964;28;20051;-56
2024/04/02 14:11:42;;;;;;;1.25;0.43;;;;;;;;;;5107487;27;20127;-56
2024/04/02 14:14:08;;;;;;;1.10;0.60;;;;;;;;;;5091662;28;20024;-56
2024/04/02 14:16:34;;;;;;;2.13;0.75;;;;;;;;;;5092077;28;20035;-57
2024/04/02 14:19:02;;;;;;;0.93;0.28;;;;;;;;;;5090857;28;20081;-58
2024/04/02 14:21:28;;;;;;;2.78;0.63;;;;;;;;;;5089882;28;20085;-56
2024/04/02 14:23:54;;;;;;;1.13;0.30;;;;;;;;;;5091532;28;20054;-57
2024/04/02 14:26:20;;;;;;;1.35;0.65;;;;;;;;;;5080738;28;20388;-58
2024/04/02 14:28:46;;;;;;;3.08;0.60;;;;;;;;;;5090784;28;20036;-58
2024/04/02 14:31:27;;;;;;;1.58;0.80;;;;;;;;;;5081620;28;20507;-57
2024/04/02 14:33:53;;;;;;;3.60;0.77;;;;;;;;;;5084360;28;20039;-58
2024/04/02 14:36:20;;;;;;;2.88;0.77;;;;;;;;;;5086689;28;20037;-58
2024/04/02 14:38:46;;;;;;;2.20;0.80;;;;;;;;;;5087901;28;20020;-58
2024/04/02 14:41:12;;;;;;;2.17;0.70;;;;;;;;;;5082786;28;20040;-58
2024/04/02 14:43:38;;;;;;;1.58;0.90;;;;;;;;;;5082181;28;20048;-58
2024/04/02 14:46:05;;;;;;;1.98;0.77;;;;;;;;;;5088775;28;20031;-58